Time;durP1;ratioP1;P1;durP2;ratioP2;P2;SDS_P1;SDS_P2;PMS_P1;PMS_P2;Temp;Humidity;BMP_temperature;BMP_pressure;BME280_temperature;BME280_humidity;BME280_pressure;Samples;Min_cycle;Max_cycle;Signal;HPM_P1;HPM_P2
2023/04/26 00:02:11;;;;;;;17.13;4.47;;;3.70;99.90;;;;;;5063681;28;20052;-66
2023/04/26 00:04:40;;;;;;;13.35;4.20;;;3.70;99.90;;;;;;5063847;28;20048;-67
2023/04/26 00:07:06;;;;;;;17.58;4.22;;;3.70;99.90;;;;;;5077920;28;20067;-66
2023/04/26 00:09:32;;;;;;;15.60;3.88;;;3.60;99.90;;;;;;5061848;28;20037;-65
2023/04/26 00:12:01;;;;;;;15.25;3.65;;;3.60;99.90;;;;;;5076415;28;20043;-66
2023/04/26 00:14:27;;;;;;;13.18;3.28;;;3.50;99.90;;;;;;5084134;28;20040;-67
2023/04/26 00:16:53;;;;;;;10.60;3.63;;;3.50;99.90;;;;;;5057915;28;20505;-67
2023/04/26 00:19:22;;;;;;;15.00;3.35;;;3.50;99.90;;;;;;5047193;28;20048;-68
2023/04/26 00:21:48;;;;;;;14.10;3.30;;;3.40;99.90;;;;;;5065883;28;20048;-66
2023/04/26 00:24:14;;;;;;;9.40;3.00;;;3.40;99.90;;;;;;5066126;28;20263;-68
2023/04/26 00:26:40;;;;;;;11.98;3.75;;;3.40;99.90;;;;;;5046159;28;20087;-66
2023/04/26 00:29:06;;;;;;;11.05;3.55;;;3.30;99.90;;;;;;5081004;28;20116;-65
2023/04/26 00:31:32;;;;;;;14.93;3.42;;;3.40;99.90;;;;;;5077643;28;20043;-66
2023/04/26 00:33:58;;;;;;;20.40;3.92;;;3.40;99.90;;;;;;5063779;28;20071;-66
2023/04/26 00:36:25;;;;;;;16.65;3.53;;;3.40;99.90;;;;;;5046753;28;20487;-67
2023/04/26 00:38:51;;;;;;;17.63;4.32;;;3.40;99.90;;;;;;5047233;28;20044;-68
2023/04/26 00:41:17;;;;;;;11.30;3.33;;;3.30;99.90;;;;;;5063543;28;20044;-66
2023/04/26 00:43:43;;;;;;;12.82;3.42;;;3.30;99.90;;;;;;5063703;28;20105;-68
2023/04/26 00:46:09;;;;;;;15.02;3.28;;;3.30;99.90;;;;;;5046558;28;20208;-67
2023/04/26 00:48:36;;;;;;;14.90;3.45;;;3.20;99.90;;;;;;5063745;28;20535;-66
2023/04/26 00:51:04;;;;;;;10.98;3.38;;;3.30;99.90;;;;;;5046693;28;20202;-69
2023/04/26 00:53:31;;;;;;;14.52;3.80;;;3.30;99.90;;;;;;5046849;28;20211;-67
2023/04/26 00:55:57;;;;;;;13.88;2.97;;;3.30;99.90;;;;;;5046715;28;20710;-66
2023/04/26 00:58:24;;;;;;;11.85;2.97;;;3.40;99.90;;;;;;5063394;28;20063;-66
2023/04/26 01:00:50;;;;;;;11.38;3.33;;;3.30;99.90;;;;;;5046630;28;20083;-69
2023/04/26 01:03:16;;;;;;;10.13;2.63;;;3.30;99.90;;;;;;5063999;28;20056;-66
2023/04/26 01:05:43;;;;;;;20.02;3.65;;;3.30;99.90;;;;;;5063332;28;20051;-66
2023/04/26 01:08:09;;;;;;;11.05;3.15;;;3.30;99.90;;;;;;5063525;28;20123;-64
2023/04/26 01:10:35;;;;;;;12.52;3.50;;;3.20;99.90;;;;;;5067315;28;20036;-67
2023/04/26 01:13:02;;;;;;;11.43;2.95;;;3.20;99.90;;;;;;5056963;28;20040;-68
2023/04/26 01:15:32;;;;;;;13.90;3.92;;;3.20;99.90;;;;;;5063075;28;20127;-66
2023/04/26 01:17:58;;;;;;;11.27;3.50;;;3.20;99.90;;;;;;5046103;28;20124;-66
2023/04/26 01:20:25;;;;;;;14.35;3.38;;;3.20;99.90;;;;;;5070133;28;20070;-65
2023/04/26 01:22:51;;;;;;;13.63;3.40;;;3.20;99.90;;;;;;5062083;28;20051;-67
2023/04/26 01:25:18;;;;;;;11.82;3.58;;;3.20;99.90;;;;;;5062838;28;20074;-64
2023/04/26 01:27:44;;;;;;;11.18;3.33;;;3.20;99.90;;;;;;5062933;28;20036;-64
2023/04/26 01:30:09;;;;;;;14.07;3.70;;;3.20;99.90;;;;;;5046328;28;20476;-65
2023/04/26 01:32:35;;;;;;;13.27;3.63;;;3.20;99.90;;;;;;5063142;28;20053;-65
2023/04/26 01:35:02;;;;;;;19.48;3.75;;;3.20;99.90;;;;;;5046674;28;20519;-67
2023/04/26 01:37:27;;;;;;;15.85;3.42;;;3.20;99.90;;;;;;5047520;28;20048;-66
2023/04/26 01:39:53;;;;;;;12.85;3.60;;;3.10;99.90;;;;;;5066543;28;20571;-66
2023/04/26 01:42:19;;;;;;;18.10;3.80;;;3.10;99.90;;;;;;5065841;28;20036;-65
2023/04/26 01:44:45;;;;;;;10.48;3.08;;;3.10;99.90;;;;;;5049903;28;20514;-65
2023/04/26 01:47:11;;;;;;;15.10;3.63;;;3.00;99.90;;;;;;5049745;28;20686;-67
2023/04/26 01:49:36;;;;;;;12.63;3.88;;;3.00;99.90;;;;;;5069327;28;20043;-66
2023/04/26 01:52:03;;;;;;;13.35;3.30;;;3.00;99.90;;;;;;5084873;28;20396;-66
2023/04/26 01:54:28;;;;;;;14.52;3.58;;;3.00;99.90;;;;;;5078752;28;20042;-66
2023/04/26 01:56:54;;;;;;;16.55;2.95;;;3.10;99.90;;;;;;5066142;28;20457;-65
2023/04/26 01:59:20;;;;;;;14.45;3.70;;;3.10;99.90;;;;;;5069037;28;20052;-65
2023/04/26 02:01:46;;;;;;;11.20;3.45;;;3.20;99.90;;;;;;5061499;28;20048;-67
2023/04/26 02:04:12;;;;;;;17.70;3.70;;;3.20;99.90;;;;;;5050195;28;20280;-66
2023/04/26 02:06:37;;;;;;;15.75;3.53;;;3.20;99.90;;;;;;5086310;28;20518;-66
2023/04/26 02:09:04;;;;;;;11.18;3.20;;;3.20;99.90;;;;;;5069483;28;20036;-66
2023/04/26 02:11:30;;;;;;;16.05;3.17;;;3.10;99.90;;;;;;5065885;28;20063;-66
2023/04/26 02:13:56;;;;;;;8.50;3.20;;;3.10;99.90;;;;;;5081610;28;20127;-66
2023/04/26 02:16:22;;;;;;;10.38;3.17;;;3.10;99.90;;;;;;5065406;28;20123;-64
2023/04/26 02:18:52;;;;;;;7.95;2.60;;;3.00;99.90;;;;;;5066047;28;20570;-65
2023/04/26 02:21:18;;;;;;;15.98;3.50;;;3.00;99.90;;;;;;5066120;28;20510;-65
2023/04/26 02:23:44;;;;;;;15.25;3.28;;;3.00;99.90;;;;;;5066220;28;20499;-66
2023/04/26 02:26:13;;;;;;;11.15;2.95;;;2.90;99.90;;;;;;5048909;28;20047;-65
2023/04/26 02:28:39;;;;;;;16.63;3.63;;;2.90;99.90;;;;;;5049159;28;20518;-65
2023/04/26 02:31:05;;;;;;;13.63;3.30;;;2.90;99.90;;;;;;5048961;28;20043;-66
2023/04/26 02:33:31;;;;;;;9.68;2.95;;;2.80;99.90;;;;;;5049552;28;20043;-68
2023/04/26 02:35:57;;;;;;;9.90;3.65;;;2.80;99.90;;;;;;5066229;28;20549;-67
2023/04/26 02:38:25;;;;;;;18.02;3.67;;;2.80;99.90;;;;;;5065538;28;20139;-67
2023/04/26 02:40:58;;;;;;;12.73;3.38;;;2.80;99.90;;;;;;5065447;28;20650;-66
2023/04/26 02:43:24;;;;;;;11.57;3.50;;;2.70;99.90;;;;;;5065625;28;20037;-66
2023/04/26 02:45:50;;;;;;;13.68;3.25;;;2.70;99.90;;;;;;5048724;28;20310;-66
2023/04/26 02:48:15;;;;;;;17.58;3.47;;;2.70;99.90;;;;;;5065059;28;20037;-66
2023/04/26 02:50:41;;;;;;;8.18;3.00;;;2.60;99.90;;;;;;5064827;28;20102;-68
2023/04/26 02:53:07;;;;;;;13.43;3.35;;;2.60;99.90;;;;;;5065278;28;20523;-66
2023/04/26 02:55:33;;;;;;;9.15;3.53;;;2.50;99.90;;;;;;5076147;28;20044;-66
2023/04/26 02:57:59;;;;;;;16.90;3.40;;;2.50;99.90;;;;;;5057508;28;20060;-67
2023/04/26 03:00:25;;;;;;;13.07;3.25;;;2.50;99.90;;;;;;5048444;28;20041;-66
2023/04/26 03:02:51;;;;;;;15.98;4.47;;;2.50;99.90;;;;;;5048178;28;20047;-68
2023/04/26 03:05:17;;;;;;;15.93;3.20;;;2.50;99.90;;;;;;5048386;28;20040;-67
2023/04/26 03:07:42;;;;;;;16.40;3.22;;;2.50;99.90;;;;;;5048188;28;20499;-67
2023/04/26 03:10:08;;;;;;;13.02;3.40;;;2.50;99.90;;;;;;5048574;28;20117;-67
2023/04/26 03:12:34;;;;;;;13.88;3.20;;;2.60;99.90;;;;;;5063016;28;20127;-67
2023/04/26 03:15:02;;;;;;;11.43;3.10;;;2.60;99.90;;;;;;5072330;28;20169;-67
2023/04/26 03:17:28;;;;;;;12.23;3.08;;;2.60;99.90;;;;;;5067032;28;20487;-68
2023/04/26 03:19:54;;;;;;;10.55;3.70;;;2.60;99.90;;;;;;5067511;28;20055;-68
2023/04/26 03:22:20;;;;;;;10.23;3.05;;;2.60;99.90;;;;;;5065198;28;20051;-67
2023/04/26 03:24:46;;;;;;;11.98;3.38;;;2.70;99.90;;;;;;5064944;28;20508;-67
2023/04/26 03:27:12;;;;;;;14.73;3.25;;;2.70;99.90;;;;;;5047796;28;20055;-66
2023/04/26 03:29:38;;;;;;;10.40;3.08;;;2.70;99.90;;;;;;5047674;28;20044;-68
2023/04/26 03:32:05;;;;;;;14.00;3.50;;;2.80;99.90;;;;;;5056319;28;20036;-66
2023/04/26 03:34:31;;;;;;;12.38;3.13;;;2.90;99.90;;;;;;5067854;28;20422;-68
2023/04/26 03:36:56;;;;;;;10.90;2.85;;;2.90;99.90;;;;;;5064472;28;20036;-67
2023/04/26 03:39:22;;;;;;;14.27;2.90;;;3.00;99.90;;;;;;5064439;28;20071;-66
2023/04/26 03:41:48;;;;;;;10.48;2.72;;;3.00;99.90;;;;;;5064215;28;20075;-67
2023/04/26 03:44:14;;;;;;;11.02;2.65;;;3.10;99.90;;;;;;5064153;28;20055;-66
2023/04/26 03:46:40;;;;;;;9.57;2.60;;;3.20;99.90;;;;;;5047547;28;20115;-69
2023/04/26 03:49:09;;;;;;;13.02;2.95;;;3.20;99.90;;;;;;5048205;28;20498;-64
2023/04/26 03:51:34;;;;;;;6.53;2.47;;;3.30;99.90;;;;;;5048018;28;20694;-66
2023/04/26 03:54:00;;;;;;;10.85;3.20;;;3.30;99.90;;;;;;5047824;28;20044;-67
2023/04/26 03:56:26;;;;;;;11.80;3.33;;;3.30;99.90;;;;;;5064292;28;20131;-66
2023/04/26 03:58:52;;;;;;;9.95;2.53;;;3.30;99.90;;;;;;5078680;28;20154;-66
2023/04/26 04:01:21;;;;;;;10.80;2.80;;;3.40;99.90;;;;;;5081128;28;20054;-67
2023/04/26 04:03:47;;;;;;;12.75;3.03;;;3.30;99.90;;;;;;5047635;28;20400;-66
2023/04/26 04:06:13;;;;;;;6.97;2.40;;;3.40;99.90;;;;;;5047496;28;20051;-66
2023/04/26 04:08:38;;;;;;;8.55;2.65;;;3.40;99.90;;;;;;5046943;28;20047;-66
2023/04/26 04:11:07;;;;;;;9.20;2.80;;;3.40;99.90;;;;;;5064412;28;20168;-65
2023/04/26 04:13:33;;;;;;;12.93;3.05;;;3.40;99.90;;;;;;5046955;28;20044;-66
2023/04/26 04:15:59;;;;;;;11.52;2.70;;;3.50;99.90;;;;;;5047123;28;20045;-65
2023/04/26 04:18:25;;;;;;;11.98;2.72;;;3.50;99.90;;;;;;5064072;28;20101;-66
2023/04/26 04:20:51;;;;;;;8.20;2.88;;;3.60;99.90;;;;;;5058352;28;20043;-65
2023/04/26 04:23:16;;;;;;;11.68;2.65;;;3.60;99.90;;;;;;5084091;28;20043;-67
2023/04/26 04:25:44;;;;;;;11.05;2.72;;;3.60;99.90;;;;;;5066134;28;20082;-67
2023/04/26 04:28:10;;;;;;;12.70;3.28;;;3.60;99.90;;;;;;5057520;28;20044;-66
2023/04/26 04:30:36;;;;;;;8.85;2.80;;;3.60;99.90;;;;;;5046916;28;20462;-66
2023/04/26 04:33:04;;;;;;;11.93;2.97;;;3.70;99.90;;;;;;5047147;28;20036;-65
2023/04/26 04:35:32;;;;;;;11.57;2.53;;;3.70;99.90;;;;;;5047393;28;20067;-66
2023/04/26 04:37:58;;;;;;;7.82;2.67;;;3.70;99.90;;;;;;5063964;28;20109;-64
2023/04/26 04:40:24;;;;;;;10.88;3.15;;;3.80;99.90;;;;;;5047351;28;20045;-64
2023/04/26 04:42:51;;;;;;;8.68;2.60;;;3.80;99.90;;;;;;5047310;28;20513;-66
2023/04/26 04:45:17;;;;;;;9.77;2.85;;;3.90;99.90;;;;;;5046756;28;20047;-64
2023/04/26 04:47:44;;;;;;;9.25;2.30;;;3.90;99.90;;;;;;5063571;28;20299;-65
2023/04/26 04:50:10;;;;;;;15.52;3.42;;;4.00;99.90;;;;;;5047021;28;20036;-64
2023/04/26 04:52:36;;;;;;;9.98;2.95;;;4.10;99.90;;;;;;5047076;28;20040;-66
2023/04/26 04:55:05;;;;;;;7.25;2.08;;;4.10;99.90;;;;;;5073286;28;20040;-64
2023/04/26 04:57:31;;;;;;;8.27;2.13;;;4.20;99.90;;;;;;5079237;28;20503;-65
2023/04/26 04:59:57;;;;;;;9.65;3.17;;;4.20;99.90;;;;;;5063501;28;20159;-67
2023/04/26 05:02:24;;;;;;;9.68;2.80;;;4.20;99.90;;;;;;5046713;28;20495;-64
2023/04/26 05:04:50;;;;;;;8.45;2.13;;;4.30;99.90;;;;;;5063476;28;20090;-67
2023/04/26 05:07:17;;;;;;;12.63;2.63;;;4.30;99.90;;;;;;5063310;28;20040;-68
2023/04/26 05:09:43;;;;;;;10.10;2.47;;;4.30;99.90;;;;;;5063297;28;20079;-65
2023/04/26 05:12:08;;;;;;;12.52;2.88;;;4.30;99.90;;;;;;5063868;28;20471;-67
2023/04/26 05:14:34;;;;;;;10.00;2.80;;;4.30;99.90;;;;;;5070810;28;20240;-66
2023/04/26 05:17:00;;;;;;;11.25;3.38;;;4.30;99.90;;;;;;5061583;28;20205;-66
2023/04/26 05:19:26;;;;;;;10.55;3.58;;;4.20;99.90;;;;;;5050836;28;20079;-66
2023/04/26 05:21:52;;;;;;;10.00;3.72;;;4.20;99.90;;;;;;5086955;28;20043;-67
2023/04/26 05:24:18;;;;;;;10.85;3.00;;;4.20;99.90;;;;;;5066800;28;20050;-67
2023/04/26 05:26:44;;;;;;;12.70;3.15;;;4.20;99.90;;;;;;5066694;28;20040;-66
2023/04/26 05:29:10;;;;;;;15.27;3.55;;;4.10;99.90;;;;;;5050212;28;20044;-65
2023/04/26 05:31:36;;;;;;;11.07;3.15;;;4.20;99.90;;;;;;5054172;28;20094;-67
2023/04/26 05:34:02;;;;;;;12.82;3.10;;;4.20;99.90;;;;;;5070257;28;20043;-65
2023/04/26 05:36:28;;;;;;;10.40;3.08;;;4.20;99.90;;;;;;5070365;28;20088;-67
2023/04/26 05:38:54;;;;;;;10.02;3.00;;;4.20;99.90;;;;;;5050169;28;20079;-65
2023/04/26 05:41:19;;;;;;;11.75;3.30;;;4.20;99.90;;;;;;5066762;28;20032;-65
2023/04/26 05:43:46;;;;;;;10.68;3.15;;;4.20;99.90;;;;;;5050076;28;20044;-66
2023/04/26 05:46:12;;;;;;;9.55;3.33;;;4.10;99.90;;;;;;5050474;28;20044;-67
2023/04/26 05:48:38;;;;;;;14.55;3.47;;;4.00;99.90;;;;;;5066826;28;20047;-65
2023/04/26 05:51:04;;;;;;;13.38;3.88;;;4.10;99.90;;;;;;5066653;28;20037;-65
2023/04/26 05:53:30;;;;;;;13.20;3.42;;;4.60;99.90;;;;;;5049881;28;20047;-65
2023/04/26 05:55:55;;;;;;;9.25;3.40;;;5.00;99.90;;;;;;5066065;28;20036;-68
2023/04/26 05:58:21;;;;;;;10.98;2.83;;;5.40;99.90;;;;;;5066042;28;20414;-67
2023/04/26 06:00:47;;;;;;;12.23;3.50;;;5.70;99.90;;;;;;5065967;28;20082;-67
2023/04/26 06:03:13;;;;;;;11.98;3.08;;;5.50;99.90;;;;;;5049575;28;20056;-68
2023/04/26 06:05:40;;;;;;;8.13;3.65;;;5.30;99.90;;;;;;5049855;28;20504;-65
2023/04/26 06:08:06;;;;;;;12.88;3.65;;;5.50;99.90;;;;;;5072572;28;20075;-65
2023/04/26 06:10:34;;;;;;;8.55;2.88;;;5.80;99.90;;;;;;5053212;28;20043;-68
2023/04/26 06:13:00;;;;;;;10.95;2.60;;;6.00;99.90;;;;;;5053220;28;20430;-67
2023/04/26 06:15:30;;;;;;;8.88;3.10;;;6.30;99.90;;;;;;5070670;28;20117;-68
2023/04/26 06:17:58;;;;;;;9.25;2.90;;;6.40;99.90;;;;;;5056426;28;20228;-68
2023/04/26 06:20:25;;;;;;;12.38;3.17;;;6.40;99.90;;;;;;5059407;28;20413;-70
2023/04/26 06:22:51;;;;;;;13.55;3.35;;;6.40;99.90;;;;;;5055424;28;20135;-68
2023/04/26 06:25:17;;;;;;;12.77;3.15;;;6.50;99.90;;;;;;5062289;28;20316;-64
2023/04/26 06:27:42;;;;;;;9.95;2.85;;;6.70;99.90;;;;;;5075040;28;20697;-67
2023/04/26 06:30:09;;;;;;;12.18;3.00;;;6.80;99.90;;;;;;5071395;28;20037;-64
2023/04/26 06:32:38;;;;;;;8.85;2.80;;;6.80;99.90;;;;;;5068645;28;20031;-64
2023/04/26 06:35:04;;;;;;;7.80;2.80;;;6.80;99.90;;;;;;5086428;28;20032;-64
2023/04/26 06:37:30;;;;;;;15.38;2.95;;;6.70;99.90;;;;;;5059766;28;20044;-66
2023/04/26 06:39:56;;;;;;;12.32;3.38;;;6.70;99.90;;;;;;5050372;28;20048;-64
2023/04/26 06:42:21;;;;;;;9.07;2.80;;;6.80;99.90;;;;;;5066774;28;20074;-67
2023/04/26 06:44:47;;;;;;;10.85;3.10;;;6.80;99.90;;;;;;5065348;28;20082;-63
2023/04/26 06:47:13;;;;;;;10.88;3.45;;;6.80;99.90;;;;;;5067675;28;20063;-64
2023/04/26 06:49:39;;;;;;;9.55;2.83;;;6.70;99.90;;;;;;5077961;28;20123;-64
2023/04/26 06:52:05;;;;;;;10.30;3.30;;;6.70;99.90;;;;;;5048186;28;20063;-64
2023/04/26 06:54:32;;;;;;;8.25;2.83;;;6.80;99.90;;;;;;5070586;28;20036;-66
2023/04/26 06:56:57;;;;;;;9.15;2.78;;;7.20;99.90;;;;;;5080577;28;20048;-64
2023/04/26 06:59:23;;;;;;;7.90;2.30;;;7.90;99.90;;;;;;5065616;28;20573;-65
2023/04/26 07:01:50;;;;;;;8.75;2.50;;;8.60;99.90;;;;;;5064912;28;20054;-64
2023/04/26 07:04:17;;;;;;;10.00;2.50;;;9.00;99.90;;;;;;5048923;28;20131;-64
2023/04/26 07:06:43;;;;;;;7.05;2.15;;;9.20;99.90;;;;;;5072322;28;20698;-64
2023/04/26 07:09:12;;;;;;;9.95;2.30;;;9.20;99.90;;;;;;5071856;28;20504;-65
2023/04/26 07:11:39;;;;;;;5.50;2.10;;;9.00;99.90;;;;;;5048208;28;20047;-65
2023/04/26 07:14:05;;;;;;;8.43;2.25;;;9.20;99.90;;;;;;5077283;28;20071;-65
2023/04/26 07:16:31;;;;;;;10.02;2.30;;;9.60;99.90;;;;;;5076550;28;20072;-65
2023/04/26 07:18:57;;;;;;;10.85;3.08;;;9.90;99.90;;;;;;5047884;28;20046;-64
2023/04/26 07:21:24;;;;;;;10.13;2.05;;;9.80;99.90;;;;;;5072183;28;20044;-66
2023/04/26 07:23:54;;;;;;;8.93;2.60;;;9.90;99.90;;;;;;5064289;28;20044;-65
2023/04/26 07:26:25;;;;;;;8.63;2.38;;;9.90;99.90;;;;;;5048133;28;20048;-67
2023/04/26 07:28:51;;;;;;;10.63;2.00;;;10.00;99.90;;;;;;5058828;28;20119;-66
2023/04/26 07:31:18;;;;;;;8.68;2.33;;;10.00;99.90;;;;;;5073675;28;20036;-66
2023/04/26 07:33:43;;;;;;;9.00;2.50;;;9.90;99.90;;;;;;5068477;28;20534;-64
2023/04/26 07:36:09;;;;;;;10.68;2.30;;;9.80;99.90;;;;;;5065308;28;20253;-63
2023/04/26 07:38:35;;;;;;;7.90;2.20;;;9.30;99.90;;;;;;5068048;28;20090;-66
2023/04/26 07:41:03;;;;;;;9.15;2.63;;;9.20;99.90;;;;;;5077261;28;20035;-66
2023/04/26 07:43:30;;;;;;;8.15;2.30;;;8.80;99.90;;;;;;5073084;28;20032;-65
2023/04/26 07:46:00;;;;;;;11.20;3.25;;;8.60;99.90;;;;;;5063092;28;20075;-65
2023/04/26 07:48:27;;;;;;;8.82;2.53;;;8.60;99.90;;;;;;5066286;28;20442;-63
2023/04/26 07:50:54;;;;;;;10.30;2.67;;;8.50;99.90;;;;;;5064154;28;20044;-63
2023/04/26 07:53:20;;;;;;;15.35;2.97;;;8.80;99.90;;;;;;5063889;28;20302;-63
2023/04/26 07:55:49;;;;;;;8.18;2.47;;;9.10;99.90;;;;;;5043103;28;20036;-65
2023/04/26 07:58:15;;;;;;;10.13;2.72;;;9.20;99.90;;;;;;5047836;28;20062;-65
2023/04/26 08:00:43;;;;;;;8.35;2.17;;;9.50;99.90;;;;;;5077024;28;20240;-65
2023/04/26 08:03:11;;;;;;;9.63;2.83;;;9.90;99.90;;;;;;5071361;28;20044;-67
2023/04/26 08:05:36;;;;;;;10.55;3.28;;;10.50;99.00;;;;;;5079501;28;20066;-65
2023/04/26 08:08:05;;;;;;;12.15;2.90;;;11.00;98.00;;;;;;5065911;28;20087;-64
2023/04/26 08:10:31;;;;;;;7.88;2.03;;;10.90;97.00;;;;;;5069876;28;20063;-66
2023/04/26 08:12:57;;;;;;;7.75;2.55;;;11.40;97.20;;;;;;5068762;28;20028;-68
2023/04/26 08:15:23;;;;;;;14.45;2.72;;;12.20;96.50;;;;;;5073323;28;20090;-66
2023/04/26 08:17:52;;;;;;;8.38;2.60;;;12.40;94.60;;;;;;5053993;28;20043;-68
2023/04/26 08:20:17;;;;;;;11.73;2.70;;;12.60;93.80;;;;;;5055651;28;20036;-65
2023/04/26 08:22:43;;;;;;;10.35;2.78;;;12.20;94.00;;;;;;5072559;28;20410;-64
2023/04/26 08:25:09;;;;;;;7.88;2.58;;;12.40;94.40;;;;;;5070772;28;20044;-66
2023/04/26 08:27:36;;;;;;;10.77;2.53;;;12.80;94.40;;;;;;5066378;28;20412;-63
2023/04/26 08:30:03;;;;;;;13.50;2.72;;;12.70;94.00;;;;;;5066278;28;20028;-67
2023/04/26 08:32:28;;;;;;;8.95;2.90;;;12.70;93.30;;;;;;5065316;28;20040;-67
2023/04/26 08:34:54;;;;;;;11.70;2.47;;;12.40;92.70;;;;;;5080431;28;20525;-66
2023/04/26 08:37:20;;;;;;;10.02;2.40;;;12.40;92.80;;;;;;5080810;28;20501;-64
2023/04/26 08:39:46;;;;;;;13.43;2.83;;;12.50;92.10;;;;;;5069621;28;20037;-64
2023/04/26 08:42:16;;;;;;;8.57;2.50;;;12.30;91.80;;;;;;5078806;28;20449;-68
2023/04/26 08:44:43;;;;;;;6.68;2.10;;;12.20;91.30;;;;;;5044902;28;20044;-65
2023/04/26 08:47:16;;;;;;;14.13;2.75;;;11.60;91.80;;;;;;5061173;28;20391;-63
2023/04/26 08:49:51;;;;;;;7.45;2.20;;;11.20;93.00;;;;;;5071636;28;20380;-66
2023/04/26 08:52:22;;;;;;;7.63;2.38;;;10.50;95.10;;;;;;5053142;28;20040;-63
2023/04/26 08:54:50;;;;;;;13.70;3.40;;;9.90;96.90;;;;;;5050062;28;20075;-66
2023/04/26 08:57:20;;;;;;;9.50;2.40;;;9.50;96.60;;;;;;5069921;28;20500;-64
2023/04/26 08:59:47;;;;;;;8.57;2.40;;;9.10;97.40;;;;;;5075747;28;20625;-64
2023/04/26 09:02:22;;;;;;;14.88;3.08;;;8.80;97.80;;;;;;5039458;28;20106;-66
2023/04/26 09:04:50;;;;;;;14.25;2.30;;;8.70;99.00;;;;;;5049444;28;20120;-69
2023/04/26 09:07:21;;;;;;;13.43;2.28;;;8.70;99.90;;;;;;5074636;28;20041;-63
2023/04/26 09:09:50;;;;;;;10.30;2.63;;;8.70;99.90;;;;;;5066264;28;20553;-63
2023/04/26 09:12:20;;;;;;;15.23;3.25;;;8.80;99.90;;;;;;5069969;28;20050;-64
2023/04/26 09:14:47;;;;;;;8.40;2.78;;;8.90;99.90;;;;;;5080745;28;20043;-65
2023/04/26 09:17:30;;;;;;;11.25;2.45;;;9.00;99.60;;;;;;5069707;28;20053;-64
2023/04/26 09:19:57;;;;;;;13.73;2.58;;;9.20;99.00;;;;;;5066666;28;20048;-65
2023/04/26 09:22:30;;;;;;;9.82;2.55;;;9.60;99.20;;;;;;5062078;28;20037;-66
2023/04/26 09:24:56;;;;;;;9.57;2.70;;;9.90;98.50;;;;;;5056371;28;20035;-64
2023/04/26 09:27:34;;;;;;;10.18;2.90;;;10.00;97.90;;;;;;5070971;28;20052;-66
2023/04/26 09:30:05;;;;;;;12.25;2.90;;;9.80;97.60;;;;;;5072050;28;20036;-64
2023/04/26 09:32:47;;;;;;;9.57;2.53;;;9.80;98.70;;;;;;5067684;28;20044;-64
2023/04/26 09:35:39;;;;;;;10.25;2.90;;;9.20;99.80;;;;;;5070307;28;20036;-66
2023/04/26 09:38:06;;;;;;;13.52;2.72;;;8.50;99.90;;;;;;5064678;28;20056;-67
2023/04/26 09:40:39;;;;;;;13.57;2.70;;;8.40;99.90;;;;;;5051808;28;20041;-66
2023/04/26 09:43:11;;;;;;;10.70;2.63;;;8.30;99.90;;;;;;5073156;28;20047;-63
2023/04/26 09:45:51;;;;;;;12.57;3.03;;;8.10;99.90;;;;;;5073935;28;20468;-67
2023/04/26 09:48:21;;;;;;;11.98;3.35;;;8.00;99.90;;;;;;5068447;28;20036;-64
2023/04/26 09:50:51;;;;;;;13.23;3.55;;;7.90;99.90;;;;;;5066296;28;20088;-67
2023/04/26 09:53:36;;;;;;;9.13;2.60;;;7.90;99.90;;;;;;5046787;28;20068;-65
2023/04/26 09:56:17;;;;;;;9.43;2.60;;;8.00;99.90;;;;;;5059107;28;20046;-66
2023/04/26 09:58:46;;;;;;;8.60;2.33;;;8.10;99.90;;;;;;5067950;28;20056;-64
2023/04/26 10:01:14;;;;;;;9.07;2.63;;;8.10;99.90;;;;;;5048776;28;20048;-63
2023/04/26 10:03:41;;;;;;;6.72;2.30;;;8.30;99.90;;;;;;5048972;28;20044;-64
2023/04/26 10:06:07;;;;;;;10.63;2.08;;;8.50;99.90;;;;;;5073970;28;20198;-64
2023/04/26 10:08:34;;;;;;;11.35;2.22;;;8.70;99.90;;;;;;5067129;28;20094;-64
2023/04/26 10:11:03;;;;;;;9.05;2.70;;;9.00;99.90;;;;;;5040663;28;20183;-66
2023/04/26 10:13:31;;;;;;;9.98;2.60;;;9.20;99.50;;;;;;5071597;28;20032;-67
2023/04/26 10:15:58;;;;;;;6.63;2.20;;;9.50;99.00;;;;;;5072094;28;20088;-65
2023/04/26 10:18:24;;;;;;;12.43;2.65;;;9.70;97.60;;;;;;5053659;28;20139;-64
2023/04/26 10:20:52;;;;;;;13.35;2.80;;;9.70;96.50;;;;;;5080119;28;20468;-69
2023/04/26 10:23:21;;;;;;;13.05;3.75;;;9.80;96.30;;;;;;5070258;28;20059;-65
2023/04/26 10:25:48;;;;;;;13.23;3.90;;;9.90;96.30;;;;;;5070337;28;20036;-62
2023/04/26 10:28:15;;;;;;;10.98;3.10;;;9.90;96.20;;;;;;5062053;28;20546;-64
2023/04/26 10:30:54;;;;;;;14.65;3.28;;;10.00;96.30;;;;;;5040853;28;20130;-65
2023/04/26 10:33:22;;;;;;;10.20;2.85;;;10.10;96.20;;;;;;5072131;28;20068;-65
2023/04/26 10:36:12;;;;;;;7.95;2.13;;;10.10;96.10;;;;;;5052494;28;20036;-67
2023/04/26 10:39:04;;;;;;;10.93;2.72;;;10.10;95.60;;;;;;5079969;28;20483;-65
2023/04/26 10:41:31;;;;;;;18.48;3.03;;;10.10;95.90;;;;;;5076285;28;20067;-64
2023/04/26 10:43:59;;;;;;;9.90;3.03;;;10.10;96.40;;;;;;5082048;28;20487;-65
2023/04/26 10:46:37;;;;;;;14.10;3.17;;;10.00;96.80;;;;;;5070662;28;20399;-64
2023/04/26 10:49:14;;;;;;;12.45;3.40;;;9.90;97.20;;;;;;5065748;28;20048;-62
2023/04/26 10:51:40;;;;;;;11.82;2.58;;;9.50;99.00;;;;;;5049031;28;20086;-63
2023/04/26 10:54:06;;;;;;;11.45;2.55;;;9.30;99.40;;;;;;5048590;28;20076;-63
2023/04/26 10:56:32;;;;;;;7.55;1.95;;;9.00;99.90;;;;;;5067748;28;20086;-62
2023/04/26 10:59:18;;;;;;;9.10;1.70;;;8.80;99.90;;;;;;5058844;28;20717;-65
2023/04/26 11:01:44;;;;;;;5.95;1.65;;;8.60;99.90;;;;;;5073906;28;20092;-64
2023/04/26 11:04:11;;;;;;;4.70;1.70;;;8.50;99.90;;;;;;5072419;28;20086;-65
2023/04/26 11:06:51;;;;;;;6.82;2.00;;;8.40;99.90;;;;;;5048356;28;20062;-63
2023/04/26 11:09:46;;;;;;;7.82;1.90;;;8.40;99.90;;;;;;5066929;28;20033;-64
2023/04/26 11:12:14;;;;;;;9.57;1.88;;;8.50;99.90;;;;;;5066048;28;20102;-63
2023/04/26 11:14:44;;;;;;;6.43;1.75;;;8.60;99.90;;;;;;5066541;28;20043;-63
2023/04/26 11:17:11;;;;;;;7.13;1.90;;;8.60;99.90;;;;;;5052306;28;20597;-62
2023/04/26 11:19:37;;;;;;;8.13;2.38;;;8.70;99.90;;;;;;5067461;28;20072;-63
2023/04/26 11:22:06;;;;;;;5.15;1.90;;;8.70;99.90;;;;;;5066179;28;20044;-62
2023/04/26 11:24:37;;;;;;;11.30;2.53;;;8.70;99.90;;;;;;5048073;28;20387;-62
2023/04/26 11:27:10;;;;;;;10.80;2.22;;;8.60;99.90;;;;;;5047433;28;20480;-63
2023/04/26 11:29:37;;;;;;;8.90;2.20;;;8.40;99.90;;;;;;5071407;28;20773;-62
2023/04/26 11:32:03;;;;;;;7.88;2.20;;;8.20;99.90;;;;;;5074028;28;20147;-62
2023/04/26 11:34:40;;;;;;;9.82;2.22;;;8.10;99.90;;;;;;5064824;28;20578;-62
2023/04/26 11:37:06;;;;;;;9.68;2.00;;;8.10;99.90;;;;;;5083966;28;20036;-63
2023/04/26 11:39:36;;;;;;;10.18;2.33;;;8.00;99.90;;;;;;5067163;28;20048;-62
2023/04/26 11:42:09;;;;;;;8.18;2.50;;;8.00;99.90;;;;;;5084972;28;20347;-63
2023/04/26 11:44:36;;;;;;;11.57;2.42;;;7.90;99.90;;;;;;5047744;28;20550;-64
2023/04/26 11:47:04;;;;;;;10.85;2.30;;;7.80;99.90;;;;;;5064228;28;20544;-63
2023/04/26 11:49:35;;;;;;;9.45;1.90;;;7.70;99.90;;;;;;5056722;28;20040;-63
2023/04/26 11:52:03;;;;;;;7.55;2.33;;;7.60;99.90;;;;;;5065617;28;20524;-63
2023/04/26 11:54:34;;;;;;;7.28;2.10;;;7.50;99.90;;;;;;5065821;28;20141;-65
2023/04/26 11:57:03;;;;;;;7.75;2.13;;;7.60;99.90;;;;;;5064171;28;20048;-63
2023/04/26 11:59:32;;;;;;;9.60;2.08;;;7.70;99.90;;;;;;5074107;28;20047;-64
2023/04/26 12:02:00;;;;;;;12.57;2.58;;;7.90;99.90;;;;;;5066285;28;20140;-64
2023/04/26 12:04:29;;;;;;;9.13;2.85;;;8.10;99.90;;;;;;5084404;28;20457;-62
2023/04/26 12:06:56;;;;;;;10.38;2.90;;;8.30;99.90;;;;;;5060451;28;20040;-64
2023/04/26 12:09:27;;;;;;;10.70;2.67;;;8.60;99.90;;;;;;5064234;28;20182;-65
2023/04/26 12:12:06;;;;;;;10.00;2.35;;;8.80;99.90;;;;;;5064002;28;20044;-64
2023/04/26 12:14:32;;;;;;;6.90;2.10;;;9.00;99.90;;;;;;5064448;28;20035;-63
2023/04/26 12:17:00;;;;;;;11.40;2.40;;;9.30;99.90;;;;;;5065132;28;20065;-62
2023/04/26 12:19:26;;;;;;;10.77;2.65;;;9.60;99.90;;;;;;5064129;28;20048;-63
2023/04/26 12:21:53;;;;;;;8.65;2.30;;;9.90;99.90;;;;;;5064896;28;20042;-63
2023/04/26 12:24:23;;;;;;;8.80;2.13;;;10.10;99.90;;;;;;5047232;28;20051;-64
2023/04/26 12:26:49;;;;;;;10.63;2.40;;;10.30;99.40;;;;;;5065426;28;20055;-64
2023/04/26 12:29:15;;;;;;;11.98;2.25;;;10.30;97.70;;;;;;5065156;28;20036;-62
2023/04/26 12:31:41;;;;;;;10.23;2.15;;;10.30;97.40;;;;;;5065004;28;20036;-62
2023/04/26 12:34:07;;;;;;;9.00;1.70;;;10.30;96.90;;;;;;5047231;28;20336;-63
2023/04/26 12:36:33;;;;;;;7.03;1.90;;;10.30;96.00;;;;;;5069238;28;20073;-68
2023/04/26 12:39:01;;;;;;;8.23;1.83;;;10.20;94.80;;;;;;5067264;28;20048;-68
2023/04/26 12:41:26;;;;;;;8.43;2.10;;;10.20;94.30;;;;;;5085298;28;20572;-65
2023/04/26 12:43:52;;;;;;;10.80;2.13;;;10.30;94.60;;;;;;5070103;28;20040;-63
2023/04/26 12:46:18;;;;;;;9.15;1.92;;;10.40;93.70;;;;;;5065239;28;20158;-63
2023/04/26 12:48:43;;;;;;;6.85;1.88;;;10.50;93.20;;;;;;5064775;28;20048;-63
2023/04/26 12:51:09;;;;;;;7.80;1.95;;;10.50;92.90;;;;;;5047107;28;20045;-63